sensor_id;sensor_type;location;lat;lon;timestamp;pressure;altitude;pressure_sealevel;temperature;humidity
29331;BME280;16331;52.528;13.342;2022-09-09T00:07:13;160285.06;;;16.66;100.00
29331;BME280;16331;52.528;13.342;2022-09-09T00:09:46;160227.19;;;16.45;100.00
29331;BME280;16331;52.528;13.342;2022-09-09T00:12:32;160198.16;;;16.35;100.00
29331;BME280;16331;52.528;13.342;2022-09-09T00:15:10;160191.28;;;16.32;100.00
29331;BME280;16331;52.528;13.342;2022-09-09T00:20:40;160178.88;;;16.28;100.00
29331;BME280;16331;52.528;13.342;2022-09-09T00:23:14;160165.09;;;16.23;100.00
29331;BME280;16331;52.528;13.342;2022-09-09T00:28:30;160184.34;;;16.30;100.00
29331;BME280;16331;52.528;13.342;2022-09-09T00:31:13;160174.75;;;16.26;100.00
29331;BME280;16331;52.528;13.342;2022-09-09T00:33:42;160235.47;;;16.48;100.00
29331;BME280;16331;52.528;13.342;2022-09-09T00:36:18;160252.00;;;16.54;100.00
29331;BME280;16331;52.528;13.342;2022-09-09T00:38:55;160279.59;;;16.64;100.00
29331;BME280;16331;52.528;13.342;2022-09-09T00:41:26;160256.13;;;16.56;100.00
29331;BME280;16331;52.528;13.342;2022-09-09T00:44:26;160229.94;;;16.46;100.00
29331;BME280;16331;52.528;13.342;2022-09-09T00:50:17;160246.47;;;16.52;100.00
29331;BME280;16331;52.528;13.342;2022-09-09T00:53:10;160218.81;;;16.42;100.00
29331;BME280;16331;52.528;13.342;2022-09-09T00:58:14;160235.47;;;16.48;100.00
29331;BME280;16331;52.528;13.342;2022-09-09T01:01:10;160210.56;;;16.39;100.00
29331;BME280;16331;52.528;13.342;2022-09-09T01:03:49;160246.47;;;16.52;100.00
29331;BME280;16331;52.528;13.342;2022-09-09T01:06:38;160227.19;;;16.45;100.00
29331;BME280;16331;52.528;13.342;2022-09-09T01:12:01;160199.53;;;16.35;100.00
29331;BME280;16331;52.528;13.342;2022-09-09T01:17:19;160108.56;;;16.02;100.00
29331;BME280;16331;52.528;13.342;2022-09-09T01:20:04;160101.63;;;16.00;100.00
29331;BME280;16331;52.528;13.342;2022-09-09T01:25:24;160137.50;;;16.13;100.00
29331;BME280;16331;52.528;13.342;2022-09-09T01:27:55;160134.75;;;16.12;100.00
29331;BME280;16331;52.528;13.342;2022-09-09T01:30:23;160158.16;;;16.20;100.00
29331;BME280;16331;52.528;13.342;2022-09-09T01:32:53;160158.16;;;16.20;100.00
29331;BME280;16331;52.528;13.342;2022-09-09T01:37:57;160171.94;;;16.25;100.00
29331;BME280;16331;52.528;13.342;2022-09-09T01:40:24;160187.16;;;16.31;100.00
29331;BME280;16331;52.528;13.342;2022-09-09T01:42:50;160155.41;;;16.19;100.00
29331;BME280;16331;52.528;13.342;2022-09-09T01:45:17;160114.03;;;16.04;100.00
29331;BME280;16331;52.528;13.342;2022-09-09T01:47:44;160138.88;;;16.13;100.00
29331;BME280;16331;52.528;13.342;2022-09-09T01:50:12;160122.31;;;16.07;100.00
29331;BME280;16331;52.528;13.342;2022-09-09T01:52:40;160126.44;;;16.09;100.00
29331;BME280;16331;52.528;13.342;2022-09-09T01:55:07;160143.03;;;16.15;100.00
29331;BME280;16331;52.528;13.342;2022-09-09T01:57:43;160127.84;;;16.09;100.00
29331;BME280;16331;52.528;13.342;2022-09-09T02:00:17;160093.38;;;15.97;100.00
29331;BME280;16331;52.528;13.342;2022-09-09T02:07:50;160127.84;;;16.09;100.00
29331;BME280;16331;52.528;13.342;2022-09-09T02:12:53;160053.41;;;15.82;100.00
29331;BME280;16331;52.528;13.342;2022-09-09T02:18:25;160052.00;;;15.81;100.00
29331;BME280;16331;52.528;13.342;2022-09-09T02:20:53;160027.22;;;15.72;100.00
29331;BME280;16331;52.528;13.342;2022-09-09T02:23:20;160024.47;;;15.71;100.00
29331;BME280;16331;52.528;13.342;2022-09-09T02:25:47;159994.16;;;15.60;100.00
29331;BME280;16331;52.528;13.342;2022-09-09T02:28:15;160046.53;;;15.79;100.00
29331;BME280;16331;52.528;13.342;2022-09-09T02:30:44;160005.16;;;15.64;100.00
29331;BME280;16331;52.528;13.342;2022-09-09T02:33:13;160020.34;;;15.70;100.00
29331;BME280;16331;52.528;13.342;2022-09-09T02:35:42;160021.69;;;15.70;100.00
29331;BME280;16331;52.528;13.342;2022-09-09T02:38:13;160039.59;;;15.77;100.00
29331;BME280;16331;52.528;13.342;2022-09-09T02:40:41;160058.94;;;15.84;100.00
29331;BME280;16331;52.528;13.342;2022-09-09T02:43:07;160074.06;;;15.89;100.00
29331;BME280;16331;52.528;13.342;2022-09-09T02:45:41;160010.69;;;15.66;100.00
29331;BME280;16331;52.528;13.342;2022-09-09T02:48:14;160028.59;;;15.73;100.00
29331;BME280;16331;52.528;13.342;2022-09-09T02:51:36;160056.13;;;15.83;100.00
29331;BME280;16331;52.528;13.342;2022-09-09T02:54:04;160046.53;;;15.79;100.00
29331;BME280;16331;52.528;13.342;2022-09-09T02:56:42;160052.00;;;15.81;100.00
29331;BME280;16331;52.528;13.342;2022-09-09T02:59:09;160031.34;;;15.74;100.00
29331;BME280;16331;52.528;13.342;2022-09-09T03:01:36;160003.78;;;15.64;100.00
29331;BME280;16331;52.528;13.342;2022-09-09T03:04:03;160025.81;;;15.72;100.00
29331;BME280;16331;52.528;13.342;2022-09-09T03:06:31;160039.59;;;15.77;100.00
29331;BME280;16331;52.528;13.342;2022-09-09T03:08:57;160056.13;;;15.83;100.00
29331;BME280;16331;52.528;13.342;2022-09-09T03:11:24;160009.28;;;15.66;100.00
29331;BME280;16331;52.528;13.342;2022-09-09T03:13:50;159970.72;;;15.52;100.00
29331;BME280;16331;52.528;13.342;2022-09-09T03:16:17;159972.13;;;15.52;100.00
29331;BME280;16331;52.528;13.342;2022-09-09T03:18:43;159990.03;;;15.59;100.00
29331;BME280;16331;52.528;13.342;2022-09-09T03:21:10;159998.28;;;15.62;100.00
29331;BME280;16331;52.528;13.342;2022-09-09T03:23:36;160023.09;;;15.71;100.00
29331;BME280;16331;52.528;13.342;2022-09-09T03:26:03;159972.13;;;15.52;100.00
29331;BME280;16331;52.528;13.342;2022-09-09T03:28:29;159967.97;;;15.51;100.00
29331;BME280;16331;52.528;13.342;2022-09-09T03:31:01;159969.31;;;15.51;100.00
29331;BME280;16331;52.528;13.342;2022-09-09T03:33:27;159962.47;;;15.49;100.00
29331;BME280;16331;52.528;13.342;2022-09-09T03:35:54;159995.50;;;15.61;100.00
29331;BME280;16331;52.528;13.342;2022-09-09T03:38:22;159995.50;;;15.61;100.00
29331;BME280;16331;52.528;13.342;2022-09-09T03:40:50;160010.69;;;15.66;100.00
29331;BME280;16331;52.528;13.342;2022-09-09T03:43:17;159962.47;;;15.49;100.00
29331;BME280;16331;52.528;13.342;2022-09-09T03:45:47;159976.25;;;15.54;100.00
29331;BME280;16331;52.528;13.342;2022-09-09T03:48:14;159987.25;;;15.58;100.00
29331;BME280;16331;52.528;13.342;2022-09-09T03:50:45;159932.09;;;15.38;100.00
29331;BME280;16331;52.528;13.342;2022-09-09T03:53:11;159944.53;;;15.42;100.00
29331;BME280;16331;52.528;13.342;2022-09-09T03:55:37;159927.97;;;15.36;100.00
29331;BME280;16331;52.528;13.342;2022-09-09T03:58:03;159908.66;;;15.29;100.00
29331;BME280;16331;52.528;13.342;2022-09-09T04:00:29;159945.94;;;15.43;100.00
29331;BME280;16331;52.528;13.342;2022-09-09T04:02:56;159943.16;;;15.42;100.00
29331;BME280;16331;52.528;13.342;2022-09-09T04:05:24;159940.41;;;15.41;100.00
29331;BME280;16331;52.528;13.342;2022-09-09T04:07:50;159925.19;;;15.35;100.00
29331;BME280;16331;52.528;13.342;2022-09-09T04:10:17;159896.28;;;15.25;100.00
29331;BME280;16331;52.528;13.342;2022-09-09T04:12:43;159918.31;;;15.33;100.00
29331;BME280;16331;52.528;13.342;2022-09-09T04:15:10;159925.19;;;15.35;100.00
29331;BME280;16331;52.528;13.342;2022-09-09T04:17:36;159929.31;;;15.37;100.00
29331;BME280;16331;52.528;13.342;2022-09-09T04:20:03;159896.28;;;15.25;100.00
29331;BME280;16331;52.528;13.342;2022-09-09T04:22:29;159912.78;;;15.31;100.00
29331;BME280;16331;52.528;13.342;2022-09-09T04:24:55;159926.56;;;15.36;100.00
29331;BME280;16331;52.528;13.342;2022-09-09T04:27:21;159930.72;;;15.37;100.00
29331;BME280;16331;52.528;13.342;2022-09-09T04:29:47;159967.97;;;15.51;100.00
29331;BME280;16331;52.528;13.342;2022-09-09T04:32:13;159923.84;;;15.35;100.00
29331;BME280;16331;52.528;13.342;2022-09-09T04:34:39;159876.97;;;15.18;100.00
29331;BME280;16331;52.528;13.342;2022-09-09T04:37:07;159892.13;;;15.23;100.00
29331;BME280;16331;52.528;13.342;2022-09-09T04:39:33;159868.72;;;15.15;100.00
29331;BME280;16331;52.528;13.342;2022-09-09T04:41:59;159857.72;;;15.11;100.00
29331;BME280;16331;52.528;13.342;2022-09-09T04:44:25;159886.63;;;15.21;100.00
29331;BME280;16331;52.528;13.342;2022-09-09T04:46:51;159918.31;;;15.33;100.00
29331;BME280;16331;52.528;13.342;2022-09-09T04:49:17;159893.47;;;15.24;100.00
29331;BME280;16331;52.528;13.342;2022-09-09T04:51:43;159889.34;;;15.22;100.00
29331;BME280;16331;52.528;13.342;2022-09-09T04:54:09;159894.88;;;15.24;100.00
29331;BME280;16331;52.528;13.342;2022-09-09T04:56:36;159921.06;;;15.34;100.00
29331;BME280;16331;52.528;13.342;2022-09-09T04:59:02;159912.78;;;15.31;100.00
29331;BME280;16331;52.528;13.342;2022-09-09T05:01:28;159903.13;;;15.27;100.00
29331;BME280;16331;52.528;13.342;2022-09-09T05:03:55;159912.78;;;15.31;100.00
29331;BME280;16331;52.528;13.342;2022-09-09T05:06:24;159908.66;;;15.29;100.00
29331;BME280;16331;52.528;13.342;2022-09-09T05:08:51;159936.28;;;15.39;100.00
29331;BME280;16331;52.528;13.342;2022-09-09T05:13:45;159937.63;;;15.40;100.00
29331;BME280;16331;52.528;13.342;2022-09-09T05:16:11;159963.81;;;15.49;100.00
29331;BME280;16331;52.528;13.342;2022-09-09T05:22:00;160016.22;;;15.68;100.00
29331;BME280;16331;52.528;13.342;2022-09-09T05:24:27;160057.53;;;15.83;100.00
29331;BME280;16331;52.528;13.342;2022-09-09T05:26:53;160016.22;;;15.68;100.00
29331;BME280;16331;52.528;13.342;2022-09-09T05:29:19;160056.13;;;15.83;100.00
29331;BME280;16331;52.528;13.342;2022-09-09T05:31:48;160058.94;;;15.84;100.00
29331;BME280;16331;52.528;13.342;2022-09-09T05:34:15;160064.44;;;15.86;100.00
29331;BME280;16331;52.528;13.342;2022-09-09T05:36:42;160075.44;;;15.90;100.00
29331;BME280;16331;52.528;13.342;2022-09-09T05:39:08;160130.63;;;16.10;100.00
29331;BME280;16331;52.528;13.342;2022-09-09T05:41:34;160127.84;;;16.09;100.00
29331;BME280;16331;52.528;13.342;2022-09-09T05:44:01;160140.22;;;16.14;100.00
29331;BME280;16331;52.528;13.342;2022-09-09T05:46:31;160158.16;;;16.20;100.00
29331;BME280;16331;52.528;13.342;2022-09-09T05:48:57;160181.63;;;16.29;100.00
29331;BME280;16331;52.528;13.342;2022-09-09T05:51:26;160184.34;;;16.30;100.00
29331;BME280;16331;52.528;13.342;2022-09-09T05:53:53;160174.75;;;16.26;100.00
29331;BME280;16331;52.528;13.342;2022-09-09T05:56:23;160183.00;;;16.29;100.00
29331;BME280;16331;52.528;13.342;2022-09-09T05:58:51;160194.00;;;16.33;100.00
29331;BME280;16331;52.528;13.342;2022-09-09T06:01:21;160213.34;;;16.40;100.00
29331;BME280;16331;52.528;13.342;2022-09-09T06:03:49;160315.47;;;16.77;100.00
29331;BME280;16331;52.528;13.342;2022-09-09T06:06:18;160475.50;;;17.35;100.00
29331;BME280;16331;52.528;13.342;2022-09-09T06:08:47;160543.19;;;17.60;100.00
29331;BME280;16331;52.528;13.342;2022-09-09T06:11:18;160533.50;;;17.57;100.00
29331;BME280;16331;52.528;13.342;2022-09-09T06:13:45;160519.72;;;17.52;100.00
29331;BME280;16331;52.528;13.342;2022-09-09T06:16:16;160511.44;;;17.49;100.00
29331;BME280;16331;52.528;13.342;2022-09-09T06:18:43;160447.88;;;17.25;100.00
29331;BME280;16331;52.528;13.342;2022-09-09T06:21:17;160435.47;;;17.21;100.00
29331;BME280;16331;52.528;13.342;2022-09-09T06:23:44;160530.78;;;17.56;100.00
29331;BME280;16331;52.528;13.342;2022-09-09T06:26:34;160527.97;;;17.55;100.00
29331;BME280;16331;52.528;13.342;2022-09-09T06:29:02;160559.75;;;17.66;100.00
29331;BME280;16331;52.528;13.342;2022-09-09T06:31:31;160532.13;;;17.56;100.00
29331;BME280;16331;52.528;13.342;2022-09-09T06:34:00;160557.00;;;17.65;100.00
29331;BME280;16331;52.528;13.342;2022-09-09T06:36:29;160478.28;;;17.37;100.00
29331;BME280;16331;52.528;13.342;2022-09-09T06:38:55;160486.56;;;17.40;100.00
29331;BME280;16331;52.528;13.342;2022-09-09T06:41:25;160511.44;;;17.49;100.00
29331;BME280;16331;52.528;13.342;2022-09-09T06:43:54;160434.13;;;17.20;100.00
29331;BME280;16331;52.528;13.342;2022-09-09T06:46:23;160389.97;;;17.04;100.00
29331;BME280;16331;52.528;13.342;2022-09-09T06:48:49;160395.44;;;17.06;100.00
29331;BME280;16331;52.528;13.342;2022-09-09T06:51:20;160394.09;;;17.06;100.00
29331;BME280;16331;52.528;13.342;2022-09-09T06:53:54;160443.72;;;17.24;100.00
29331;BME280;16331;52.528;13.342;2022-09-09T06:58:51;160577.69;;;17.73;100.00
29331;BME280;16331;52.528;13.342;2022-09-09T07:01:28;160685.41;;;18.12;100.00
29331;BME280;16331;52.528;13.342;2022-09-09T07:03:57;160771.06;;;18.43;100.00
29331;BME280;16331;52.528;13.342;2022-09-09T07:06:29;160877.47;;;18.82;100.00
29331;BME280;16331;52.528;13.342;2022-09-09T07:09:01;160900.97;;;18.90;100.00
29331;BME280;16331;52.528;13.342;2022-09-09T07:11:32;160950.69;;;19.08;100.00
29331;BME280;16331;52.528;13.342;2022-09-09T07:13:59;160971.47;;;19.16;100.00
29331;BME280;16331;52.528;13.342;2022-09-09T07:16:26;161058.59;;;19.47;100.00
29331;BME280;16331;52.528;13.342;2022-09-09T07:18:54;161180.25;;;19.91;100.00
29331;BME280;16331;52.528;13.342;2022-09-09T07:21:24;161209.34;;;20.02;100.00
29331;BME280;16331;52.528;13.342;2022-09-09T07:23:52;161252.25;;;20.18;100.00
29331;BME280;16331;52.528;13.342;2022-09-09T07:26:20;161296.53;;;20.34;100.00
29331;BME280;16331;52.528;13.342;2022-09-09T07:28:47;161288.22;;;20.31;100.00
29331;BME280;16331;52.528;13.342;2022-09-09T07:31:18;161326.97;;;20.45;100.00
29331;BME280;16331;52.528;13.342;2022-09-09T07:33:45;161450.13;;;20.89;100.00
29331;BME280;16331;52.528;13.342;2022-09-09T07:36:19;161416.94;;;20.77;100.00
29331;BME280;16331;52.528;13.342;2022-09-09T07:38:54;161529.06;;;21.18;100.00
29331;BME280;16331;52.528;13.342;2022-09-09T07:41:39;161518.03;;;21.14;100.00
29331;BME280;16331;52.528;13.342;2022-09-09T07:44:07;161559.53;;;21.29;100.00
29331;BME280;16331;52.528;13.342;2022-09-09T07:46:34;161587.25;;;21.39;100.00
29331;BME280;16331;52.528;13.342;2022-09-09T07:49:01;161540.19;;;21.22;100.00
29331;BME280;16331;52.528;13.342;2022-09-09T07:51:34;161681.44;;;21.73;100.00
29331;BME280;16331;52.528;13.342;2022-09-09T07:54:03;161619.09;;;21.50;100.00
29331;BME280;16331;52.528;13.342;2022-09-09T07:56:30;161547.06;;;21.24;100.00
29331;BME280;16331;52.528;13.342;2022-09-09T07:58:57;161642.66;;;21.59;100.00
29331;BME280;16331;52.528;13.342;2022-09-09T08:01:30;161624.66;;;21.52;100.00
29331;BME280;16331;52.528;13.342;2022-09-09T08:04:02;161584.47;;;21.38;100.00
29331;BME280;16331;52.528;13.342;2022-09-09T08:06:31;161580.34;;;21.36;100.00
29331;BME280;16331;52.528;13.342;2022-09-09T08:08:59;161573.38;;;21.34;100.00
29331;BME280;16331;52.528;13.342;2022-09-09T08:11:27;161628.78;;;21.54;100.00
29331;BME280;16331;52.528;13.342;2022-09-09T08:13:54;161595.53;;;21.42;100.00
29331;BME280;16331;52.528;13.342;2022-09-09T08:16:22;161526.31;;;21.17;100.00
29331;BME280;16331;52.528;13.342;2022-09-09T08:18:50;161605.25;;;21.45;100.00
29331;BME280;16331;52.528;13.342;2022-09-09T08:21:19;161671.72;;;21.70;100.00
29331;BME280;16331;52.528;13.342;2022-09-09T08:23:46;161711.94;;;21.84;100.00
29331;BME280;16331;52.528;13.342;2022-09-09T08:26:16;161705.03;;;21.82;100.00
29331;BME280;16331;52.528;13.342;2022-09-09T08:28:43;161583.09;;;21.37;100.00
29331;BME280;16331;52.528;13.342;2022-09-09T08:31:15;161573.38;;;21.34;100.00
29331;BME280;16331;52.528;13.342;2022-09-09T08:33:43;161466.72;;;20.95;100.00
29331;BME280;16331;52.528;13.342;2022-09-09T08:36:13;161476.47;;;20.99;100.00
29331;BME280;16331;52.528;13.342;2022-09-09T08:38:46;161671.72;;;21.70;100.00
29331;BME280;16331;52.528;13.342;2022-09-09T08:41:27;161782.59;;;22.10;100.00
29331;BME280;16331;52.528;13.342;2022-09-09T08:46:51;161656.47;;;21.64;100.00
29331;BME280;16331;52.528;13.342;2022-09-09T08:49:48;161639.84;;;21.58;100.00
29331;BME280;16331;52.528;13.342;2022-09-09T08:52:30;161562.31;;;21.30;100.00
29331;BME280;16331;52.528;13.342;2022-09-09T08:55:03;161560.94;;;21.29;100.00
29331;BME280;16331;52.528;13.342;2022-09-09T08:57:31;161723.00;;;21.88;100.00
29331;BME280;16331;52.528;13.342;2022-09-09T08:59:58;161646.81;;;21.61;100.00
29331;BME280;16331;52.528;13.342;2022-09-09T09:02:38;161541.53;;;21.22;100.00
29331;BME280;16331;52.528;13.342;2022-09-09T09:08:26;161617.69;;;21.50;100.00
29331;BME280;16331;52.528;13.342;2022-09-09T09:10:56;161468.13;;;20.96;100.00
29331;BME280;16331;52.528;13.342;2022-09-09T09:13:44;161537.38;;;21.21;100.00
29331;BME280;16331;52.528;13.342;2022-09-09T09:16:30;161628.78;;;21.54;100.00
29331;BME280;16331;52.528;13.342;2022-09-09T09:18:59;161563.69;;;21.30;100.00
29331;BME280;16331;52.528;13.342;2022-09-09T09:21:34;161578.94;;;21.36;100.00
29331;BME280;16331;52.528;13.342;2022-09-09T09:24:05;161610.78;;;21.47;100.00
29331;BME280;16331;52.528;13.342;2022-09-09T09:26:35;161784.00;;;22.10;100.00
29331;BME280;16331;52.528;13.342;2022-09-09T09:29:10;161817.22;;;22.22;100.00
29331;BME280;16331;52.528;13.342;2022-09-09T09:31:37;161735.50;;;21.93;100.00
29331;BME280;16331;52.528;13.342;2022-09-09T09:34:03;161765.97;;;22.04;100.00
29331;BME280;16331;52.528;13.342;2022-09-09T09:36:46;161850.53;;;22.34;100.00
29331;BME280;16331;52.528;13.342;2022-09-09T09:39:29;161966.97;;;22.76;100.00
29331;BME280;16331;52.528;13.342;2022-09-09T09:41:56;161975.28;;;22.79;100.00
29331;BME280;16331;52.528;13.342;2022-09-09T09:44:30;161997.47;;;22.87;100.00
29331;BME280;16331;52.528;13.342;2022-09-09T09:49:52;162034.91;;;23.01;100.00
29331;BME280;16331;52.528;13.342;2022-09-09T09:52:22;162147.31;;;23.42;100.00
29331;BME280;16331;52.528;13.342;2022-09-09T09:54:49;162084.84;;;23.19;100.00
29331;BME280;16331;52.528;13.342;2022-09-09T09:57:17;162030.75;;;23.00;100.00
29331;BME280;16331;52.528;13.342;2022-09-09T09:59:44;162011.31;;;22.92;100.00
29331;BME280;16331;52.528;13.342;2022-09-09T10:02:48;162069.56;;;23.14;100.00
29331;BME280;16331;52.528;13.342;2022-09-09T10:05:18;162133.44;;;23.37;100.00
29331;BME280;16331;52.528;13.342;2022-09-09T10:07:46;162218.06;;;23.67;100.00
29331;BME280;16331;52.528;13.342;2022-09-09T10:10:19;162019.63;;;22.96;100.00
29331;BME280;16331;52.528;13.342;2022-09-09T10:13:02;161860.16;;;22.38;100.00
29331;BME280;16331;52.528;13.342;2022-09-09T10:15:59;161925.41;;;22.61;100.00
29331;BME280;16331;52.528;13.342;2022-09-09T10:21:24;162184.75;;;23.55;100.00
29331;BME280;16331;52.528;13.342;2022-09-09T10:27:15;162252.72;;;23.80;100.00
29331;BME280;16331;52.528;13.342;2022-09-09T10:30:07;162305.50;;;23.99;100.00
29331;BME280;16331;52.528;13.342;2022-09-09T10:32:40;162297.13;;;23.96;100.00
29331;BME280;16331;52.528;13.342;2022-09-09T10:40:41;162114.00;;;23.30;100.00
29331;BME280;16331;52.528;13.342;2022-09-09T10:52:03;161955.91;;;22.72;100.00
29331;BME280;16331;52.528;13.342;2022-09-09T10:57:31;162055.69;;;23.09;100.00
29331;BME280;16331;52.528;13.342;2022-09-09T11:00:04;162180.56;;;23.54;100.00
29331;BME280;16331;52.528;13.342;2022-09-09T11:02:33;162404.06;;;24.35;100.00
29331;BME280;16331;52.528;13.342;2022-09-09T11:07:44;162449.81;;;24.51;95.55
29331;BME280;16331;52.528;13.342;2022-09-09T11:12:53;162294.31;;;23.95;99.87
29331;BME280;16331;52.528;13.342;2022-09-09T11:15:41;162438.75;;;24.47;96.58
29331;BME280;16331;52.528;13.342;2022-09-09T11:18:17;162466.47;;;24.57;95.86
29331;BME280;16331;52.528;13.342;2022-09-09T11:20:46;162622.03;;;25.13;93.86
29331;BME280;16331;52.528;13.342;2022-09-09T11:23:21;162868.06;;;26.02;90.59
29331;BME280;16331;52.528;13.342;2022-09-09T11:25:55;162900.06;;;26.14;85.58
29331;BME280;16331;52.528;13.342;2022-09-09T11:28:26;162951.47;;;26.32;86.24
29331;BME280;16331;52.528;13.342;2022-09-09T11:34:27;163189.28;;;27.18;79.77
29331;BME280;16331;52.528;13.342;2022-09-09T11:37:06;163157.31;;;27.07;80.06
29331;BME280;16331;52.528;13.342;2022-09-09T11:39:39;163104.47;;;26.87;79.71
29331;BME280;16331;52.528;13.342;2022-09-09T11:42:19;162851.34;;;25.96;79.44
29331;BME280;16331;52.528;13.342;2022-09-09T11:44:46;162749.88;;;25.59;83.08
29331;BME280;16331;52.528;13.342;2022-09-09T11:47:30;162684.59;;;25.36;82.99
29331;BME280;16331;52.528;13.342;2022-09-09T11:52:44;162686.00;;;25.36;84.84
29331;BME280;16331;52.528;13.342;2022-09-09T11:55:31;162923.66;;;26.22;76.67
29331;BME280;16331;52.528;13.342;2022-09-09T11:58:14;163441.28;;;28.09;70.48
29331;BME280;16331;52.528;13.342;2022-09-09T12:00:41;163714.25;;;29.07;62.35
29331;BME280;16331;52.528;13.342;2022-09-09T12:03:39;163815.97;;;29.44;56.93
29331;BME280;16331;52.528;13.342;2022-09-09T12:06:27;163526.19;;;28.40;61.07
29331;BME280;16331;52.528;13.342;2022-09-09T12:09:07;163584.69;;;28.61;61.62
29331;BME280;16331;52.528;13.342;2022-09-09T12:11:34;163899.66;;;29.74;57.65
29331;BME280;16331;52.528;13.342;2022-09-09T12:14:01;163568.00;;;28.55;61.06
29331;BME280;16331;52.528;13.342;2022-09-09T12:16:35;163399.50;;;27.94;65.83
29331;BME280;16331;52.528;13.342;2022-09-09T12:19:14;163710.03;;;29.06;60.83
29331;BME280;16331;52.528;13.342;2022-09-09T12:27:08;163753.25;;;29.21;54.18
29331;BME280;16331;52.528;13.342;2022-09-09T12:29:48;163846.59;;;29.55;53.61
29331;BME280;16331;52.528;13.342;2022-09-09T12:32:25;163770.00;;;29.27;55.41
29331;BME280;16331;52.528;13.342;2022-09-09T12:34:59;163332.66;;;27.70;61.22
29331;BME280;16331;52.528;13.342;2022-09-09T12:37:40;163133.66;;;26.98;63.90
29331;BME280;16331;52.528;13.342;2022-09-09T12:40:29;163272.84;;;27.48;64.54
29331;BME280;16331;52.528;13.342;2022-09-09T12:42:57;163087.75;;;26.81;67.39
29331;BME280;16331;52.528;13.342;2022-09-09T12:45:31;162794.34;;;25.76;76.13
29331;BME280;16331;52.528;13.342;2022-09-09T12:48:05;162747.13;;;25.58;76.36
29331;BME280;16331;52.528;13.342;2022-09-09T12:50:37;162943.13;;;26.29;72.88
29331;BME280;16331;52.528;13.342;2022-09-09T12:55:51;162890.31;;;26.10;71.17
29331;BME280;16331;52.528;13.342;2022-09-09T12:58:19;162950.06;;;26.32;66.96
29331;BME280;16331;52.528;13.342;2022-09-09T13:01:05;162727.66;;;25.51;71.60
29331;BME280;16331;52.528;13.342;2022-09-09T13:03:33;162634.53;;;25.18;70.82
29331;BME280;16331;52.528;13.342;2022-09-09T13:06:22;162544.31;;;24.85;72.57
29331;BME280;16331;52.528;13.342;2022-09-09T13:08:50;162445.66;;;24.50;77.30
29331;BME280;16331;52.528;13.342;2022-09-09T13:11:31;162398.47;;;24.33;78.49
29331;BME280;16331;52.528;13.342;2022-09-09T13:14:01;162445.66;;;24.50;78.15
29331;BME280;16331;52.528;13.342;2022-09-09T13:16:33;162435.94;;;24.46;79.30
29331;BME280;16331;52.528;13.342;2022-09-09T13:19:09;162466.47;;;24.57;80.19
29331;BME280;16331;52.528;13.342;2022-09-09T13:21:37;162369.31;;;24.22;81.84
29331;BME280;16331;52.528;13.342;2022-09-09T13:24:05;162424.84;;;24.42;82.08
29331;BME280;16331;52.528;13.342;2022-09-09T13:26:34;162445.66;;;24.50;81.48
29331;BME280;16331;52.528;13.342;2022-09-09T13:29:17;162388.75;;;24.29;83.18
29331;BME280;16331;52.528;13.342;2022-09-09T13:31:44;162392.91;;;24.31;84.19
29331;BME280;16331;52.528;13.342;2022-09-09T13:34:25;162390.16;;;24.30;85.05
29331;BME280;16331;52.528;13.342;2022-09-09T13:37:01;162466.47;;;24.57;83.77
29331;BME280;16331;52.528;13.342;2022-09-09T13:39:28;162327.72;;;24.07;86.45
29331;BME280;16331;52.528;13.342;2022-09-09T13:41:54;162367.97;;;24.21;87.43
29331;BME280;16331;52.528;13.342;2022-09-09T13:44:24;162408.22;;;24.36;85.67
29331;BME280;16331;52.528;13.342;2022-09-09T13:49:40;162724.88;;;25.50;79.95
29331;BME280;16331;52.528;13.342;2022-09-09T13:52:15;163254.75;;;27.42;69.04
29331;BME280;16331;52.528;13.342;2022-09-09T13:54:42;163620.91;;;28.74;59.09
29331;BME280;16331;52.528;13.342;2022-09-09T13:57:21;163277.00;;;27.50;65.34
29331;BME280;16331;52.528;13.342;2022-09-09T13:59:47;163219.97;;;27.29;66.13
29331;BME280;16331;52.528;13.342;2022-09-09T14:02:15;163098.91;;;26.85;68.45
29331;BME280;16331;52.528;13.342;2022-09-09T14:04:42;163161.50;;;27.08;67.94
29331;BME280;16331;52.528;13.342;2022-09-09T14:07:16;163357.66;;;27.79;63.48
29331;BME280;16331;52.528;13.342;2022-09-09T14:09:42;163743.56;;;29.18;57.38
29331;BME280;16331;52.528;13.342;2022-09-09T14:12:11;163909.38;;;29.78;54.38
29331;BME280;16331;52.528;13.342;2022-09-09T14:14:37;164198.06;;;30.81;50.49
29331;BME280;16331;52.528;13.342;2022-09-09T14:17:04;163782.53;;;29.32;52.51
29331;BME280;16331;52.528;13.342;2022-09-09T14:19:30;163662.69;;;28.89;53.63
29331;BME280;16331;52.528;13.342;2022-09-09T14:22:00;163921.97;;;29.82;50.96
29331;BME280;16331;52.528;13.342;2022-09-09T14:24:27;163584.69;;;28.61;55.21
29331;BME280;16331;52.528;13.342;2022-09-09T14:27:13;163435.69;;;28.07;58.90
29331;BME280;16331;52.528;13.342;2022-09-09T14:29:42;163417.59;;;28.00;59.78
29331;BME280;16331;52.528;13.342;2022-09-09T14:32:42;163243.59;;;27.38;63.13
29331;BME280;16331;52.528;13.342;2022-09-09T14:35:19;162972.31;;;26.40;68.25
29331;BME280;16331;52.528;13.342;2022-09-09T14:37:50;163027.94;;;26.60;66.09